createdAt,value
2023-06-04T00:00:01.182Z,17.08
2023-06-04T00:02:28.404Z,21.20
2023-06-04T00:04:55.712Z,18.27
2023-06-04T00:07:23.008Z,20.38
2023-06-04T00:09:50.241Z,19.02
2023-06-04T00:12:17.910Z,19.05
2023-06-04T00:14:45.167Z,18.33
2023-06-04T00:17:12.529Z,18.15
2023-06-04T00:19:41.334Z,18.35
2023-06-04T00:22:08.949Z,18.30
2023-06-04T00:24:39.127Z,19.00
2023-06-04T00:27:07.992Z,20.17
2023-06-04T00:29:35.019Z,20.52
2023-06-04T00:32:02.719Z,21.58
2023-06-04T00:34:30.011Z,23.15
2023-06-04T00:36:57.180Z,21.83
2023-06-04T00:39:24.328Z,20.90
2023-06-04T00:41:51.423Z,22.27
2023-06-04T00:44:18.854Z,21.13
2023-06-04T00:46:46.727Z,21.02
2023-06-04T00:49:14.062Z,20.90
2023-06-04T00:51:41.642Z,19.58
2023-06-04T00:54:10.439Z,20.95
2023-06-04T00:56:38.540Z,20.30
2023-06-04T00:59:12.574Z,20.90
2023-06-04T01:01:55.190Z,20.02
2023-06-04T01:04:46.988Z,20.10
2023-06-04T01:07:16.888Z,19.75
2023-06-04T01:09:46.236Z,19.35
2023-06-04T01:12:13.670Z,18.85
2023-06-04T01:14:41.805Z,19.33
2023-06-04T01:17:11.719Z,18.70
2023-06-04T01:20:12.989Z,17.67
2023-06-04T01:22:42.932Z,17.20
2023-06-04T01:25:35.001Z,18.52
2023-06-04T01:28:04.492Z,18.13
2023-06-04T01:30:37.699Z,17.38
2023-06-04T01:33:05.124Z,18.00
2023-06-04T01:35:32.586Z,18.92
2023-06-04T01:37:59.990Z,18.27
2023-06-04T01:40:27.695Z,18.92
2023-06-04T01:42:56.002Z,18.25
2023-06-04T01:45:24.074Z,18.80
2023-06-04T01:47:51.307Z,16.77
2023-06-04T01:50:18.522Z,18.20
2023-06-04T01:52:45.847Z,17.83
2023-06-04T01:55:16.929Z,18.45
2023-06-04T01:57:45.628Z,18.30
2023-06-04T02:00:13.849Z,18.60
2023-06-04T02:02:43.033Z,18.05
2023-06-04T02:05:11.512Z,18.10
2023-06-04T02:07:46.114Z,18.50
2023-06-04T02:10:15.652Z,17.02
2023-06-04T02:12:55.240Z,17.77
2023-06-04T02:15:24.892Z,17.10
2023-06-04T02:17:52.724Z,18.80
2023-06-04T02:20:19.956Z,17.95
2023-06-04T02:22:47.163Z,17.52
2023-06-04T02:25:14.229Z,19.08
2023-06-04T02:27:41.419Z,19.25
2023-06-04T02:30:09.289Z,18.20
2023-06-04T02:32:37.382Z,18.10
2023-06-04T02:35:05.511Z,18.33
2023-06-04T02:37:32.823Z,18.02
2023-06-04T02:39:59.876Z,17.33
2023-06-04T02:42:27.066Z,17.08
2023-06-04T02:44:54.173Z,17.85
2023-06-04T02:47:21.513Z,18.08
2023-06-04T02:49:48.565Z,18.73
2023-06-04T02:52:15.747Z,17.05
2023-06-04T02:54:42.818Z,18.10
2023-06-04T02:57:09.971Z,18.70
2023-06-04T02:59:37.729Z,18.80
2023-06-04T03:02:05.764Z,18.90
2023-06-04T03:04:35.657Z,19.10
2023-06-04T03:07:04.158Z,18.60
2023-06-04T03:09:35.134Z,19.60
2023-06-04T03:12:03.157Z,17.60
2023-06-04T03:14:34.560Z,18.35
2023-06-04T03:17:08.676Z,17.88
2023-06-04T03:19:41.530Z,19.42
2023-06-04T03:22:10.192Z,20.10
2023-06-04T03:24:41.151Z,20.02
2023-06-04T03:27:10.222Z,18.52
2023-06-04T03:29:38.821Z,19.65
2023-06-04T03:32:08.189Z,17.65
2023-06-04T03:34:36.079Z,18.42
2023-06-04T03:37:04.176Z,18.25
2023-06-04T03:39:32.864Z,18.00
2023-06-04T03:42:02.372Z,18.08
2023-06-04T03:44:30.643Z,18.17
2023-06-04T03:46:58.092Z,17.58
2023-06-04T03:49:25.465Z,19.50
2023-06-04T03:51:52.774Z,18.55
2023-06-04T03:54:22.442Z,19.25
2023-06-04T03:56:51.189Z,20.40
2023-06-04T03:59:18.382Z,18.25
2023-06-04T04:01:47.029Z,18.38
2023-06-04T04:04:14.296Z,17.90
2023-06-04T04:06:42.617Z,17.13
2023-06-04T04:09:10.528Z,19.40
2023-06-04T04:11:38.097Z,17.40
2023-06-04T04:14:05.779Z,19.48
2023-06-04T04:16:34.077Z,17.27
2023-06-04T04:19:01.330Z,17.65
2023-06-04T04:21:28.541Z,18.35
2023-06-04T04:23:55.934Z,20.83
2023-06-04T04:26:25.054Z,20.08
2023-06-04T04:28:59.334Z,19.85
2023-06-04T04:31:29.390Z,18.60
2023-06-04T04:33:57.528Z,17.75
2023-06-04T04:36:25.166Z,19.27
2023-06-04T04:38:56.026Z,19.10
2023-06-04T04:41:30.310Z,19.27
2023-06-04T04:44:05.276Z,19.55
2023-06-04T04:46:33.313Z,18.67
2023-06-04T04:49:00.425Z,16.92
2023-06-04T04:51:27.885Z,18.40
2023-06-04T04:53:56.152Z,17.75
2023-06-04T04:56:24.958Z,17.75
2023-06-04T04:58:52.977Z,17.73
2023-06-04T05:01:21.467Z,17.25
2023-06-04T05:03:49.735Z,18.50
2023-06-04T05:06:17.754Z,17.60
2023-06-04T05:08:45.436Z,19.20
2023-06-04T05:11:14.313Z,18.65
2023-06-04T05:13:43.007Z,18.80
2023-06-04T05:16:12.860Z,17.38
2023-06-04T05:18:42.948Z,18.25
2023-06-04T05:21:13.415Z,17.58
2023-06-04T05:23:49.856Z,17.80
2023-06-04T05:26:24.200Z,18.35
2023-06-04T05:28:52.823Z,18.88
2023-06-04T05:31:20.086Z,19.25
2023-06-04T05:33:49.212Z,19.70
2023-06-04T05:36:21.077Z,21.17
2023-06-04T05:38:58.696Z,27.55
2023-06-04T05:41:32.072Z,30.27
2023-06-04T05:44:01.816Z,24.27
2023-06-04T05:46:29.976Z,23.52
2023-06-04T05:48:57.164Z,22.23
2023-06-04T05:51:25.371Z,20.02
2023-06-04T05:53:52.563Z,21.35
2023-06-04T05:56:20.193Z,18.27
2023-06-04T05:58:53.562Z,18.13
2023-06-04T06:01:23.024Z,16.50
2023-06-04T06:03:52.109Z,16.88
2023-06-04T06:06:22.280Z,16.77
2023-06-04T06:08:50.875Z,16.80
2023-06-04T06:11:19.065Z,16.35
2023-06-04T06:13:46.501Z,15.57
2023-06-04T06:16:14.632Z,15.40
2023-06-04T06:18:41.971Z,14.48
2023-06-04T06:21:09.426Z,15.32
2023-06-04T06:23:37.381Z,15.73
2023-06-04T06:26:09.332Z,14.90
2023-06-04T06:28:44.699Z,15.02
2023-06-04T06:31:12.719Z,14.77
2023-06-04T06:33:42.493Z,15.82
2023-06-04T06:36:13.480Z,14.68
2023-06-04T06:38:41.483Z,14.82
2023-06-04T06:41:09.692Z,14.48
2023-06-04T06:43:37.166Z,15.38
2023-06-04T06:46:04.237Z,15.27
2023-06-04T06:48:31.387Z,14.70
2023-06-04T06:50:58.440Z,14.80
2023-06-04T06:53:25.601Z,15.63
2023-06-04T06:55:52.648Z,14.55
2023-06-04T06:58:19.753Z,15.05
2023-06-04T07:00:47.085Z,14.55
2023-06-04T07:03:14.262Z,14.73
2023-06-04T07:05:41.474Z,14.90
2023-06-04T07:08:08.674Z,16.00
2023-06-04T07:10:35.829Z,15.77
2023-06-04T07:13:02.942Z,16.17
2023-06-04T07:15:30.108Z,16.05
2023-06-04T07:17:57.208Z,15.40
2023-06-04T07:20:24.542Z,15.45
2023-06-04T07:22:51.872Z,15.55
2023-06-04T07:25:19.057Z,16.02
2023-06-04T07:27:46.308Z,15.48
2023-06-04T07:30:13.766Z,14.93
2023-06-04T07:32:41.005Z,15.57
2023-06-04T07:35:08.739Z,16.00
2023-06-04T07:37:36.091Z,16.02
2023-06-04T07:40:05.059Z,15.80
2023-06-04T07:42:32.321Z,16.63
2023-06-04T07:44:59.896Z,15.95
2023-06-04T07:47:27.183Z,15.50
2023-06-04T07:50:02.350Z,15.55
2023-06-04T07:52:30.853Z,16.15
2023-06-04T07:54:57.969Z,16.13
2023-06-04T07:57:26.162Z,15.93
2023-06-04T07:59:53.349Z,15.75
2023-06-04T08:02:20.605Z,14.65
2023-06-04T08:04:48.730Z,15.88
2023-06-04T08:07:16.160Z,16.05
2023-06-04T08:09:45.201Z,15.82
2023-06-04T08:12:12.595Z,15.23
2023-06-04T08:14:40.140Z,14.90
2023-06-04T08:17:07.287Z,14.82
2023-06-04T08:19:34.366Z,13.52
2023-06-04T08:22:01.596Z,14.82
2023-06-04T08:24:28.838Z,13.82
2023-06-04T08:26:56.086Z,13.77
2023-06-04T08:29:23.956Z,13.68
2023-06-04T08:31:51.287Z,14.00
2023-06-04T08:34:18.373Z,13.00
2023-06-04T08:36:45.468Z,13.30
2023-06-04T08:39:12.620Z,12.68
2023-06-04T08:41:46.031Z,13.65
2023-06-04T08:44:13.742Z,13.00
2023-06-04T08:46:41.867Z,11.98
2023-06-04T08:49:09.762Z,11.88
2023-06-04T08:51:38.764Z,11.80
2023-06-04T08:54:10.037Z,11.95
2023-06-04T08:56:39.513Z,12.65
2023-06-04T08:59:08.774Z,13.25
2023-06-04T09:01:39.727Z,13.40
2023-06-04T09:04:11.845Z,13.50
2023-06-04T09:06:42.639Z,12.70
2023-06-04T09:09:11.493Z,12.55
2023-06-04T09:11:54.943Z,11.88
2023-06-04T09:14:22.618Z,13.05
2023-06-04T09:16:55.530Z,13.57
2023-06-04T09:19:23.722Z,13.40
2023-06-04T09:21:53.352Z,13.63
2023-06-04T09:24:22.164Z,14.63
2023-06-04T09:26:50.184Z,14.60
2023-06-04T09:29:18.247Z,14.32
2023-06-04T09:31:59.757Z,14.10
2023-06-04T09:34:30.942Z,13.65
2023-06-04T09:36:59.796Z,15.73
2023-06-04T09:39:28.300Z,15.63
2023-06-04T09:42:03.211Z,16.15
2023-06-04T09:44:31.564Z,14.93
2023-06-04T09:46:59.869Z,15.25
2023-06-04T09:49:27.226Z,15.95
2023-06-04T09:51:54.361Z,16.23
2023-06-04T09:54:21.622Z,16.73
2023-06-04T09:56:48.700Z,17.85
2023-06-04T09:59:16.274Z,15.18
2023-06-04T10:01:44.461Z,16.10
2023-06-04T10:04:14.642Z,15.38
2023-06-04T10:06:43.283Z,14.20
2023-06-04T10:09:12.308Z,12.82
2023-06-04T10:11:44.009Z,13.30
2023-06-04T10:14:26.504Z,14.07
2023-06-04T10:16:54.353Z,14.02
2023-06-04T10:19:24.824Z,12.88
2023-06-04T10:21:52.221Z,12.75
2023-06-04T10:24:21.248Z,12.02
2023-06-04T10:26:49.625Z,12.35
2023-06-04T10:29:18.966Z,12.23
2023-06-04T10:31:46.580Z,11.27
2023-06-04T10:34:14.843Z,10.85
2023-06-04T10:36:46.925Z,10.32
2023-06-04T10:39:14.941Z,11.03
2023-06-04T10:41:42.355Z,11.82
2023-06-04T10:44:09.647Z,11.40
2023-06-04T10:46:44.044Z,12.18
2023-06-04T10:49:13.484Z,10.77
2023-06-04T10:51:40.799Z,10.43
2023-06-04T10:54:08.391Z,11.48
2023-06-04T10:56:36.675Z,12.55
2023-06-04T10:59:15.959Z,12.95
2023-06-04T11:01:43.551Z,11.70
2023-06-04T11:04:25.056Z,12.57
2023-06-04T11:07:12.234Z,10.73
2023-06-04T11:09:49.719Z,9.75
2023-06-04T11:12:17.012Z,10.15
2023-06-04T11:15:04.429Z,10.43
2023-06-04T11:17:32.187Z,10.90
2023-06-04T11:20:01.414Z,10.88
2023-06-04T11:22:29.697Z,10.68
2023-06-04T11:25:00.505Z,11.10
2023-06-04T11:27:36.322Z,10.30
2023-06-04T11:30:06.431Z,10.55
2023-06-04T11:32:33.624Z,11.43
2023-06-04T11:35:12.195Z,11.45
2023-06-04T11:37:40.242Z,11.05
2023-06-04T11:40:20.480Z,11.57
2023-06-04T11:42:48.883Z,11.50
2023-06-04T11:45:20.491Z,11.43
2023-06-04T11:47:56.939Z,10.70
2023-06-04T11:50:27.926Z,11.98
2023-06-04T11:52:55.351Z,11.45
2023-06-04T11:55:23.176Z,12.27
2023-06-04T11:57:51.964Z,11.10
2023-06-04T12:00:21.315Z,11.30
2023-06-04T12:02:56.848Z,11.93
2023-06-04T12:05:29.972Z,11.23
2023-06-04T12:10:42.211Z,11.00
2023-06-04T12:13:11.282Z,10.95
2023-06-04T12:15:38.521Z,10.45
2023-06-04T12:18:06.376Z,10.85
2023-06-04T12:20:38.113Z,12.35
2023-06-04T12:23:07.188Z,11.52
2023-06-04T12:25:38.941Z,10.98
2023-06-04T12:28:06.805Z,12.05
2023-06-04T12:30:41.243Z,11.93
2023-06-04T12:33:08.909Z,11.90
2023-06-04T12:35:37.065Z,11.73
2023-06-04T12:38:06.606Z,11.77
2023-06-04T12:40:34.224Z,10.93
2023-06-04T12:43:01.576Z,11.05
2023-06-04T12:45:28.810Z,12.02
2023-06-04T12:47:56.062Z,12.07
2023-06-04T12:50:23.369Z,11.68
2023-06-04T12:52:51.085Z,11.05
2023-06-04T12:55:18.428Z,11.50
2023-06-04T12:57:45.978Z,11.40
2023-06-04T13:00:13.550Z,12.02
2023-06-04T13:02:40.736Z,12.02
2023-06-04T13:05:08.653Z,11.35
2023-06-04T13:07:35.845Z,13.13
2023-06-04T13:10:02.984Z,12.10
2023-06-04T13:12:30.212Z,11.75
2023-06-04T13:14:57.339Z,12.68
2023-06-04T13:17:24.621Z,12.50
2023-06-04T13:19:53.082Z,12.95
2023-06-04T13:22:20.169Z,12.13
2023-06-04T13:24:47.306Z,11.73
2023-06-04T13:27:14.355Z,13.50
2023-06-04T13:29:43.754Z,11.75
2023-06-04T13:32:12.234Z,12.63
2023-06-04T13:34:39.410Z,11.85
2023-06-04T13:37:07.281Z,12.95
2023-06-04T13:39:34.388Z,12.63
2023-06-04T13:42:01.538Z,12.82
2023-06-04T13:44:30.076Z,12.32
2023-06-04T13:47:00.253Z,13.00
2023-06-04T13:49:27.432Z,13.10
2023-06-04T13:51:54.467Z,12.63
2023-06-04T13:54:21.713Z,11.98
2023-06-04T13:56:49.742Z,13.20
2023-06-04T13:59:17.213Z,12.93
2023-06-04T14:01:44.651Z,13.48
2023-06-04T14:04:12.755Z,13.88
2023-06-04T14:06:40.115Z,12.60
2023-06-04T14:09:08.119Z,14.60
2023-06-04T14:11:35.402Z,13.43
2023-06-04T14:14:02.742Z,13.07
2023-06-04T14:16:30.015Z,13.80
2023-06-04T14:18:57.158Z,14.80
2023-06-04T14:21:24.334Z,14.15
2023-06-04T14:23:51.776Z,14.05
2023-06-04T14:26:19.185Z,12.80
2023-06-04T14:28:46.471Z,13.18
2023-06-04T14:31:13.637Z,14.45
2023-06-04T14:33:41.026Z,13.23
2023-06-04T14:36:08.232Z,13.73
2023-06-04T14:38:35.513Z,13.55
2023-06-04T14:41:02.730Z,14.43
2023-06-04T14:43:30.086Z,13.73
2023-06-04T14:45:57.312Z,13.93
2023-06-04T14:48:24.749Z,13.27
2023-06-04T14:50:54.668Z,14.18
2023-06-04T14:53:21.957Z,14.65
2023-06-04T14:55:49.136Z,14.23
2023-06-04T14:58:16.845Z,14.85
2023-06-04T15:00:43.995Z,14.15
2023-06-04T15:03:12.081Z,12.73
2023-06-04T15:05:39.459Z,13.57
2023-06-04T15:08:06.857Z,13.77
2023-06-04T15:10:35.182Z,13.80
2023-06-04T15:13:02.421Z,14.35
2023-06-04T15:15:29.562Z,13.40
2023-06-04T15:17:56.741Z,13.75
2023-06-04T15:20:26.371Z,13.98
2023-06-04T15:22:53.593Z,12.77
2023-06-04T15:25:21.125Z,11.38
2023-06-04T15:27:48.651Z,12.32
2023-06-04T15:30:15.741Z,12.85
2023-06-04T15:32:43.208Z,11.73
2023-06-04T15:35:11.172Z,12.65
2023-06-04T15:37:38.626Z,11.88
2023-06-04T15:40:08.702Z,12.88
2023-06-04T15:42:36.057Z,11.82
2023-06-04T15:45:03.475Z,13.07
2023-06-04T15:47:30.739Z,12.45
2023-06-04T15:49:57.984Z,12.30
2023-06-04T15:52:27.429Z,12.35
2023-06-04T15:54:54.677Z,11.43
2023-06-04T15:57:21.895Z,11.15
2023-06-04T15:59:49.148Z,13.30
2023-06-04T16:02:16.332Z,13.25
2023-06-04T16:04:43.591Z,14.05
2023-06-04T16:07:10.681Z,13.05
2023-06-04T16:09:38.477Z,13.23
2023-06-04T16:12:06.522Z,14.65
2023-06-04T16:14:33.723Z,13.45
2023-06-04T16:17:01.016Z,14.70
2023-06-04T16:19:28.181Z,13.60
2023-06-04T16:21:57.273Z,14.30
2023-06-04T16:24:24.376Z,13.77
2023-06-04T16:26:51.445Z,13.35
2023-06-04T16:29:18.714Z,13.30
2023-06-04T16:31:46.077Z,11.27
2023-06-04T16:34:13.227Z,11.48
2023-06-04T16:36:40.355Z,10.85
2023-06-04T16:39:07.391Z,9.77
2023-06-04T16:41:34.823Z,10.68
2023-06-04T16:44:01.949Z,10.38
2023-06-04T16:46:28.999Z,9.32
2023-06-04T16:48:56.094Z,10.32
2023-06-04T16:52:07.596Z,10.70
2023-06-04T16:54:34.899Z,10.18
2023-06-04T16:57:02.677Z,10.48
2023-06-04T16:59:31.565Z,9.98
2023-06-04T17:01:59.722Z,10.48
2023-06-04T17:04:26.947Z,10.05
2023-06-04T17:06:54.085Z,9.15
2023-06-04T17:09:21.181Z,9.23
2023-06-04T17:11:48.317Z,10.15
2023-06-04T17:14:15.518Z,10.45
2023-06-04T17:16:42.691Z,9.50
2023-06-04T17:19:10.004Z,10.02
2023-06-04T17:21:37.174Z,10.18
2023-06-04T17:24:04.600Z,9.00
2023-06-04T17:26:31.997Z,9.20
2023-06-04T17:28:59.848Z,10.13
2023-06-04T17:31:27.422Z,10.25
2023-06-04T17:33:54.557Z,10.20
2023-06-04T17:36:22.048Z,8.85
2023-06-04T17:38:50.354Z,9.00
2023-06-04T17:41:17.737Z,9.73
2023-06-04T17:43:44.955Z,9.70
2023-06-04T17:46:12.645Z,9.95
2023-06-04T17:48:40.273Z,9.27
2023-06-04T17:51:07.424Z,9.80
2023-06-04T17:53:34.583Z,9.25
2023-06-04T17:56:01.877Z,10.88
2023-06-04T17:58:30.484Z,10.38
2023-06-04T18:00:57.961Z,9.45
2023-06-04T18:03:25.195Z,10.50
2023-06-04T18:05:52.329Z,10.32
2023-06-04T18:08:19.689Z,10.57
2023-06-04T18:10:46.984Z,10.38
2023-06-04T18:13:14.270Z,11.27
2023-06-04T18:15:41.394Z,10.25
2023-06-04T18:18:08.624Z,10.88
2023-06-04T18:20:36.435Z,10.32
2023-06-04T18:23:04.306Z,10.18
2023-06-04T18:25:31.351Z,10.32
2023-06-04T18:27:58.966Z,10.23
2023-06-04T18:30:26.169Z,9.88
2023-06-04T18:32:55.108Z,9.48
2023-06-04T18:35:22.513Z,10.65
2023-06-04T18:37:49.930Z,10.10
2023-06-04T18:40:18.401Z,9.95
2023-06-04T18:42:47.160Z,10.43
2023-06-04T18:45:15.737Z,9.93
2023-06-04T18:47:44.881Z,11.30
2023-06-04T18:50:13.626Z,10.63
2023-06-04T18:52:41.615Z,10.60
2023-06-04T18:55:11.255Z,11.23
2023-06-04T18:57:40.257Z,11.30
2023-06-04T19:00:09.816Z,10.55
2023-06-04T19:02:39.458Z,11.20
2023-06-04T19:05:11.237Z,10.40
2023-06-04T19:07:41.980Z,10.63
2023-06-04T19:10:14.002Z,11.32
2023-06-04T19:12:43.842Z,10.50
2023-06-04T19:15:12.410Z,10.60
2023-06-04T19:17:40.330Z,11.55
2023-06-04T19:20:08.852Z,10.23
2023-06-04T19:22:38.763Z,10.23
2023-06-04T19:25:07.310Z,10.60
2023-06-04T19:27:36.383Z,11.90
2023-06-04T19:30:05.619Z,12.38
2023-06-04T19:32:34.396Z,11.57
2023-06-04T19:35:03.484Z,11.60
2023-06-04T19:37:31.975Z,11.63
2023-06-04T19:40:02.677Z,12.75
2023-06-04T19:42:32.075Z,12.40
2023-06-04T19:45:00.911Z,13.10
2023-06-04T19:47:28.890Z,13.43
2023-06-04T19:49:57.109Z,13.20
2023-06-04T19:52:26.197Z,12.57
2023-06-04T19:54:54.713Z,12.93
2023-06-04T19:57:23.099Z,13.65
2023-06-04T19:59:51.795Z,14.48
2023-06-04T20:02:20.301Z,13.93
2023-06-04T20:04:53.222Z,14.00
2023-06-04T20:07:22.018Z,12.60
2023-06-04T20:09:50.233Z,13.45
2023-06-04T20:12:19.565Z,12.82
2023-06-04T20:14:48.831Z,14.13
2023-06-04T20:17:17.419Z,13.90
2023-06-04T20:19:46.710Z,14.55
2023-06-04T20:22:14.538Z,14.10
2023-06-04T20:24:44.770Z,14.35
2023-06-04T20:27:14.254Z,14.15
2023-06-04T20:29:42.050Z,14.02
2023-06-04T20:32:10.434Z,13.95
2023-06-04T20:34:39.268Z,14.80
2023-06-04T20:37:08.337Z,13.98
2023-06-04T20:39:40.722Z,11.98
2023-06-04T20:42:08.782Z,13.55
2023-06-04T20:44:36.785Z,13.05
2023-06-04T20:47:04.802Z,12.95
2023-06-04T20:49:33.592Z,12.18
2023-06-04T20:52:02.438Z,12.35
2023-06-04T20:54:31.972Z,12.70
2023-06-04T20:57:00.811Z,13.32
2023-06-04T20:59:29.564Z,12.88
2023-06-04T21:01:57.508Z,12.85
2023-06-04T21:04:25.896Z,11.88
2023-06-04T21:06:53.834Z,13.60
2023-06-04T21:09:21.777Z,12.40
2023-06-04T21:11:49.024Z,12.15
2023-06-04T21:14:16.323Z,12.30
2023-06-04T21:16:43.689Z,11.82
2023-06-04T21:19:11.420Z,13.32
2023-06-04T21:21:41.621Z,12.45
2023-06-04T21:24:08.880Z,13.07
2023-06-04T21:26:36.061Z,11.50
2023-06-04T21:29:03.269Z,11.80
2023-06-04T21:31:30.325Z,13.32
2023-06-04T21:33:57.490Z,12.57
2023-06-04T21:36:24.710Z,12.77
2023-06-04T21:38:51.942Z,13.75
2023-06-04T21:41:19.443Z,12.82
2023-06-04T21:43:46.698Z,14.45
2023-06-04T21:46:14.711Z,13.68
2023-06-04T21:48:45.193Z,13.48
2023-06-04T21:51:12.564Z,12.20
2023-06-04T21:53:39.704Z,14.05
2023-06-04T21:56:06.859Z,13.93
2023-06-04T21:58:33.983Z,13.15
2023-06-04T22:01:01.202Z,15.52
2023-06-04T22:03:29.043Z,14.77
2023-06-04T22:05:56.466Z,15.50
2023-06-04T22:08:23.508Z,15.38
2023-06-04T22:10:50.724Z,13.68
2023-06-04T22:13:17.798Z,15.93
2023-06-04T22:15:45.081Z,16.77
2023-06-04T22:18:12.263Z,14.50
2023-06-04T22:20:39.557Z,12.68
2023-06-04T22:23:06.633Z,12.48
2023-06-04T22:25:33.873Z,11.68
2023-06-04T22:28:01.206Z,14.57
2023-06-04T22:30:28.456Z,12.40
2023-06-04T22:32:55.788Z,14.10
2023-06-04T22:35:23.781Z,13.07
2023-06-04T22:37:51.003Z,12.18
2023-06-04T22:40:18.877Z,12.32
2023-06-04T22:42:45.956Z,11.27
2023-06-04T22:45:13.173Z,11.80
2023-06-04T22:47:40.309Z,11.05
2023-06-04T22:50:09.311Z,11.45
2023-06-04T22:52:41.249Z,11.55
2023-06-04T22:55:12.561Z,10.23
2023-06-04T22:57:39.870Z,10.40
2023-06-04T23:00:08.510Z,10.85
2023-06-04T23:02:35.850Z,10.90
2023-06-04T23:05:03.650Z,11.40
2023-06-04T23:07:30.790Z,12.73
2023-06-04T23:09:57.966Z,11.20
2023-06-04T23:12:25.030Z,11.18
2023-06-04T23:14:52.289Z,12.70
2023-06-04T23:17:19.941Z,14.68
2023-06-04T23:19:47.088Z,12.48
2023-06-04T23:22:14.251Z,13.48
2023-06-04T23:24:41.482Z,12.85
2023-06-04T23:27:08.533Z,13.63
2023-06-04T23:29:35.653Z,13.63
2023-06-04T23:32:02.892Z,10.73
2023-06-04T23:34:29.986Z,12.10
2023-06-04T23:36:57.176Z,12.73
2023-06-04T23:39:24.368Z,11.60
2023-06-04T23:41:51.611Z,11.73
2023-06-04T23:44:18.739Z,11.82
2023-06-04T23:46:46.355Z,11.93
2023-06-04T23:49:13.421Z,12.35
2023-06-04T23:51:40.562Z,12.43
2023-06-04T23:54:07.680Z,13.50
2023-06-04T23:56:34.883Z,11.88
2023-06-04T23:59:02.567Z,12.82
